createdAt,value
2022-12-11T00:03:41.667Z,0.10
2022-12-11T00:08:44.107Z,0.10
2022-12-11T00:13:47.619Z,0.20
2022-12-11T00:18:52.628Z,0.20
2022-12-11T00:23:54.743Z,0.20
2022-12-11T00:28:58.615Z,0.20
2022-12-11T00:34:02.433Z,0.20
2022-12-11T00:39:05.994Z,0.20
2022-12-11T00:44:09.422Z,0.10
2022-12-11T00:49:11.538Z,0.00
2022-12-11T00:54:13.605Z,0.00
2022-12-11T00:59:17.056Z,0.00
2022-12-11T01:04:19.151Z,0.00
2022-12-11T01:09:38.844Z,-0.10
2022-12-11T01:14:42.296Z,-0.20
2022-12-11T01:19:44.370Z,-0.20
2022-12-11T01:24:47.767Z,-0.20
2022-12-11T01:29:51.480Z,-0.20
2022-12-11T01:34:53.645Z,-0.20
2022-12-11T01:39:55.775Z,-0.20
2022-12-11T01:45:31.385Z,-0.20
2022-12-11T01:50:37.057Z,-0.10
2022-12-11T01:55:41.040Z,-0.20
2022-12-11T02:00:44.472Z,-0.20
2022-12-11T02:05:46.737Z,-0.20
2022-12-11T02:11:04.615Z,-0.20
2022-12-11T02:16:18.168Z,-0.30
2022-12-11T02:21:25.320Z,-0.20
2022-12-11T02:26:42.869Z,-0.30
2022-12-11T02:31:51.203Z,-0.40
2022-12-11T02:36:56.736Z,-0.30
2022-12-11T02:42:00.135Z,-0.40
2022-12-11T02:47:05.931Z,-0.40
2022-12-11T02:52:09.363Z,-0.40
2022-12-11T02:57:15.900Z,-0.40
2022-12-11T03:02:19.914Z,-0.40
2022-12-11T03:07:26.475Z,-0.50
2022-12-11T03:12:30.655Z,-0.50
2022-12-11T03:17:39.729Z,-0.50
2022-12-11T03:22:46.844Z,-0.50
2022-12-11T03:27:57.401Z,-0.50
2022-12-11T03:33:06.075Z,-0.50
2022-12-11T03:38:12.762Z,-0.60
2022-12-11T03:43:15.940Z,-0.50
2022-12-11T03:48:21.994Z,-0.60
2022-12-11T03:53:27.161Z,-0.60
2022-12-11T03:58:29.836Z,-0.50
2022-12-11T04:03:33.343Z,-0.60
2022-12-11T04:08:35.606Z,-0.60
2022-12-11T04:13:37.792Z,-0.70
2022-12-11T04:18:58.610Z,-0.80
2022-12-11T04:24:17.114Z,-0.90
2022-12-11T04:29:19.171Z,-1.00
2022-12-11T04:34:22.643Z,-1.10
2022-12-11T04:39:24.706Z,-1.10
2022-12-11T04:44:26.780Z,-1.20
2022-12-11T04:49:30.279Z,-1.20
2022-12-11T04:54:32.441Z,-1.30
2022-12-11T04:59:34.831Z,-1.30
2022-12-11T05:04:38.621Z,-1.50
2022-12-11T05:09:40.736Z,-1.50
2022-12-11T05:14:42.796Z,-1.50
2022-12-11T05:19:48.020Z,-1.60
2022-12-11T05:24:50.146Z,-1.70
2022-12-11T05:29:57.744Z,-1.80
2022-12-11T05:35:03.803Z,-1.80
2022-12-11T05:40:07.397Z,-1.80
2022-12-11T05:45:10.636Z,-1.80
2022-12-11T05:50:14.175Z,-1.80
2022-12-11T05:55:16.642Z,-1.80
2022-12-11T06:00:18.749Z,-1.70
2022-12-11T06:05:22.236Z,-1.80
2022-12-11T06:10:24.314Z,-1.80
2022-12-11T06:15:26.369Z,-1.80
2022-12-11T06:20:32.242Z,-1.80
2022-12-11T06:25:34.353Z,-1.70
2022-12-11T06:30:38.395Z,-1.70
2022-12-11T06:35:42.998Z,-1.60
2022-12-11T06:40:45.173Z,-1.60
2022-12-11T06:45:47.387Z,-1.60
2022-12-11T06:50:50.913Z,-1.50
2022-12-11T06:55:53.047Z,-1.50
2022-12-11T07:00:55.190Z,-1.50
2022-12-11T07:06:02.791Z,-1.50
2022-12-11T07:11:06.336Z,-1.50
2022-12-11T07:16:11.226Z,-1.40
2022-12-11T07:21:15.561Z,-1.50
2022-12-11T07:26:19.076Z,-1.40
2022-12-11T07:31:23.975Z,-1.40
2022-12-11T07:36:28.679Z,-1.40
2022-12-11T07:41:32.845Z,-1.40
2022-12-11T07:46:35.526Z,-1.30
2022-12-11T07:51:39.460Z,-1.40
2022-12-11T07:56:43.861Z,-1.30
2022-12-11T08:01:46.160Z,-1.30
2022-12-11T08:06:49.664Z,-1.20
2022-12-11T08:11:52.385Z,-1.00
2022-12-11T08:16:54.554Z,-1.00
2022-12-11T08:21:58.071Z,-0.90
2022-12-11T08:27:00.928Z,-0.90
2022-12-11T08:32:05.295Z,-0.80
2022-12-11T08:37:13.661Z,-0.90
2022-12-11T08:42:15.788Z,-0.80
2022-12-11T08:47:17.905Z,-0.70
2022-12-11T08:52:21.386Z,-0.60
2022-12-11T08:57:23.517Z,-0.50
2022-12-11T09:02:25.663Z,-0.40
2022-12-11T09:07:29.120Z,-0.50
2022-12-11T09:12:31.264Z,-0.60
2022-12-11T09:17:34.669Z,-0.60
2022-12-11T09:22:38.214Z,-0.70
2022-12-11T09:27:40.333Z,-0.80
2022-12-11T09:32:42.476Z,-0.80
2022-12-11T09:37:45.961Z,-0.80
2022-12-11T09:42:54.414Z,-0.80
2022-12-11T09:47:57.866Z,-0.70
2022-12-11T09:53:09.524Z,-0.40
2022-12-11T09:58:20.096Z,-0.30
2022-12-11T10:03:55.891Z,0.00
2022-12-11T10:09:07.856Z,0.30
2022-12-11T10:14:19.901Z,0.70
2022-12-11T10:19:25.530Z,0.60
2022-12-11T10:25:09.520Z,1.00
2022-12-11T10:30:03.346Z,1.20
2022-12-11T10:35:07.523Z,1.40
2022-12-11T10:40:12.924Z,1.60
2022-12-11T10:45:17.753Z,1.20
2022-12-11T10:50:25.118Z,0.80
2022-12-11T10:55:32.024Z,0.80
2022-12-11T11:00:37.713Z,0.70
2022-12-11T11:05:41.019Z,0.60
2022-12-11T11:10:55.877Z,0.60
2022-12-11T11:16:02.787Z,0.60
2022-12-11T11:21:05.167Z,0.60
2022-12-11T11:26:10.410Z,0.80
2022-12-11T11:31:23.904Z,1.00
2022-12-11T11:36:29.317Z,0.60
2022-12-11T11:41:39.904Z,0.20
2022-12-11T11:46:47.864Z,0.10
2022-12-11T11:51:55.181Z,0.30
2022-12-11T11:57:00.118Z,0.10
2022-12-11T12:02:02.202Z,0.30
2022-12-11T12:07:18.330Z,0.30
2022-12-11T12:12:34.441Z,0.20
2022-12-11T12:17:51.983Z,0.00
2022-12-11T12:23:19.037Z,0.00
2022-12-11T12:28:30.492Z,0.00
2022-12-11T12:33:44.196Z,-0.10
2022-12-11T12:38:54.896Z,-0.10
2022-12-11T12:49:31.251Z,-0.60
2022-12-11T12:54:34.606Z,-0.70
2022-12-11T12:59:36.946Z,-0.70
2022-12-11T13:04:59.203Z,-0.60
2022-12-11T13:10:08.278Z,-0.50
2022-12-11T13:15:31.743Z,-0.50
2022-12-11T13:20:36.065Z,-0.60
2022-12-11T13:25:51.430Z,-0.70
2022-12-11T13:36:36.303Z,-0.90
2022-12-11T13:41:40.159Z,-1.00
2022-12-11T13:46:43.285Z,-0.90
2022-12-11T13:51:53.846Z,-0.90
2022-12-11T13:57:16.554Z,-0.70
2022-12-11T14:02:24.106Z,-0.60
2022-12-11T14:07:30.726Z,-0.70
2022-12-11T14:12:34.207Z,-0.90
2022-12-11T14:17:36.841Z,-1.10
2022-12-11T14:22:41.163Z,-1.00
2022-12-11T14:27:50.321Z,-1.00
2022-12-11T14:32:53.984Z,-1.10
2022-12-11T14:38:02.544Z,-1.10
2022-12-11T14:43:09.782Z,-1.30
2022-12-11T14:48:18.179Z,-1.30
2022-12-11T14:53:25.996Z,-1.40
2022-12-11T14:58:29.171Z,-1.30
2022-12-11T15:03:34.415Z,-1.10
2022-12-11T15:08:38.169Z,-1.30
2022-12-11T15:13:52.838Z,-1.40
2022-12-11T15:18:56.973Z,-1.40
2022-12-11T15:24:02.474Z,-1.40
2022-12-11T15:29:07.764Z,-1.50
2022-12-11T15:34:23.659Z,-1.60
2022-12-11T15:39:28.357Z,-1.60
2022-12-11T15:44:30.523Z,-1.60
2022-12-11T15:49:33.635Z,-1.70
2022-12-11T15:54:38.034Z,-1.50
2022-12-11T15:59:40.473Z,-1.50
2022-12-11T16:04:42.977Z,-1.50
2022-12-11T16:09:47.152Z,-1.40
2022-12-11T16:14:49.642Z,-1.60
2022-12-11T16:19:51.890Z,-1.50
2022-12-11T16:24:57.939Z,-1.40
2022-12-11T16:30:00.817Z,-1.40
2022-12-11T16:35:03.520Z,-1.30
2022-12-11T16:40:08.217Z,-1.50
2022-12-11T16:45:14.656Z,-1.50
2022-12-11T16:50:17.857Z,-1.50
2022-12-11T16:55:22.375Z,-1.50
2022-12-11T17:00:25.328Z,-1.50
2022-12-11T17:05:27.964Z,-1.50
2022-12-11T17:10:32.046Z,-1.70
2022-12-11T17:15:34.693Z,-1.70
2022-12-11T17:20:42.529Z,-1.70
2022-12-11T17:25:47.019Z,-1.70
2022-12-11T17:30:50.550Z,-1.70
2022-12-11T17:35:53.194Z,-1.80
2022-12-11T17:40:57.934Z,-1.90
2022-12-11T17:46:02.422Z,-1.90
2022-12-11T17:51:07.349Z,-2.00
2022-12-11T17:56:11.392Z,-2.20
2022-12-11T18:01:14.932Z,-2.10
2022-12-11T18:06:18.253Z,-2.20
2022-12-11T18:11:22.872Z,-2.10
2022-12-11T18:16:28.052Z,-2.10
2022-12-11T18:21:41.914Z,-2.20
2022-12-11T18:26:46.506Z,-2.20
2022-12-11T18:31:49.742Z,-2.20
2022-12-11T18:36:53.839Z,-2.10
2022-12-11T18:42:30.603Z,-2.20
2022-12-11T18:47:21.382Z,-2.30
2022-12-11T18:52:24.998Z,-2.30
2022-12-11T18:57:30.020Z,-2.40
2022-12-11T19:02:34.148Z,-2.30
2022-12-11T19:07:37.500Z,-2.30
2022-12-11T19:12:43.382Z,-2.30
2022-12-11T19:17:46.406Z,-2.30
2022-12-11T19:22:50.411Z,-2.40
2022-12-11T19:28:01.804Z,-2.30
2022-12-11T19:33:05.547Z,-2.40
2022-12-11T19:38:09.238Z,-2.30
2022-12-11T19:43:14.633Z,-2.20
2022-12-11T19:48:18.072Z,-2.20
2022-12-11T19:53:21.699Z,-2.20
2022-12-11T19:58:26.455Z,-2.20
2022-12-11T20:03:30.059Z,-2.20
2022-12-11T20:08:44.773Z,-2.20
2022-12-11T20:13:51.312Z,-2.20
2022-12-11T20:18:55.957Z,-2.10
2022-12-11T20:24:00.584Z,-2.10
2022-12-11T20:29:07.718Z,-2.10
2022-12-11T20:34:11.217Z,-2.00
2022-12-11T20:39:17.661Z,-2.10
2022-12-11T20:44:22.642Z,-1.90
2022-12-11T20:49:26.628Z,-2.00
2022-12-11T20:54:30.100Z,-2.00
2022-12-11T20:59:34.949Z,-1.90
2022-12-11T21:04:41.139Z,-1.90
2022-12-11T21:09:44.108Z,-2.00
2022-12-11T21:14:48.551Z,-2.00
2022-12-11T21:19:51.986Z,-2.10
2022-12-11T21:24:54.554Z,-2.10
2022-12-11T21:30:01.966Z,-2.10
2022-12-11T21:35:05.065Z,-2.20
2022-12-11T21:40:08.202Z,-2.20
2022-12-11T21:45:52.154Z,-2.30
2022-12-11T21:50:34.567Z,-2.30
2022-12-11T21:55:40.067Z,-2.30
2022-12-11T22:00:43.549Z,-2.30
2022-12-11T22:05:45.662Z,-2.30
2022-12-11T22:10:47.942Z,-2.30
2022-12-11T22:15:52.318Z,-2.30
2022-12-11T22:20:54.896Z,-2.30
2022-12-11T22:25:57.314Z,-2.20
2022-12-11T22:31:01.326Z,-2.30
2022-12-11T22:36:03.488Z,-2.20
2022-12-11T22:41:11.468Z,-2.20
2022-12-11T22:46:17.473Z,-2.30
2022-12-11T22:51:19.901Z,-2.30
2022-12-11T22:56:22.151Z,-2.40
2022-12-11T23:01:27.739Z,-2.40
2022-12-11T23:06:29.863Z,-2.50
2022-12-11T23:11:36.360Z,-2.60
2022-12-11T23:16:39.967Z,-2.50
2022-12-11T23:21:42.393Z,-2.50
2022-12-11T23:26:44.540Z,-2.50
2022-12-11T23:31:48.027Z,-2.40
2022-12-11T23:36:50.124Z,-2.20
2022-12-11T23:41:52.206Z,-2.20
2022-12-11T23:46:55.724Z,-2.40
2022-12-11T23:51:57.990Z,-2.40
2022-12-11T23:57:00.074Z,-2.30
